sensor_id;sensor_type;location;lat;lon;timestamp;pressure;altitude;pressure_sealevel;temperature;humidity
58668;BME280;59852;43.086;25.634;2023-04-20T00:00:12;98428.06;;;10.15;88.93
58668;BME280;59852;43.086;25.634;2023-04-20T00:02:39;98429.09;;;10.13;89.16
58668;BME280;59852;43.086;25.634;2023-04-20T00:05:06;98430.16;;;10.23;88.85
58668;BME280;59852;43.086;25.634;2023-04-20T00:07:32;98427.13;;;10.16;88.23
58668;BME280;59852;43.086;25.634;2023-04-20T00:09:57;98424.56;;;10.27;89.08
58668;BME280;59852;43.086;25.634;2023-04-20T00:12:22;98425.22;;;10.18;89.04
58668;BME280;59852;43.086;25.634;2023-04-20T00:14:48;98429.03;;;10.14;88.60
58668;BME280;59852;43.086;25.634;2023-04-20T00:17:13;98426.72;;;10.33;88.87
58668;BME280;59852;43.086;25.634;2023-04-20T00:19:38;98421.50;;;10.33;88.20
58668;BME280;59852;43.086;25.634;2023-04-20T00:22:04;98421.78;;;10.18;88.49
58668;BME280;59852;43.086;25.634;2023-04-20T00:24:29;98416.47;;;10.30;88.34
58668;BME280;59852;43.086;25.634;2023-04-20T00:26:55;98415.31;;;10.34;88.81
58668;BME280;59852;43.086;25.634;2023-04-20T00:29:20;98413.41;;;10.25;88.69
58668;BME280;59852;43.086;25.634;2023-04-20T00:31:46;98410.94;;;10.11;89.82
58668;BME280;59852;43.086;25.634;2023-04-20T00:34:11;98413.06;;;10.06;89.44
58668;BME280;59852;43.086;25.634;2023-04-20T00:36:36;98414.50;;;10.10;89.27
58668;BME280;59852;43.086;25.634;2023-04-20T00:39:02;98413.22;;;10.16;89.40
58668;BME280;59852;43.086;25.634;2023-04-20T00:41:29;98411.88;;;10.10;89.13
58668;BME280;59852;43.086;25.634;2023-04-20T00:43:55;98412.69;;;10.23;89.33
58668;BME280;59852;43.086;25.634;2023-04-20T00:46:20;98410.22;;;10.33;88.52
58668;BME280;59852;43.086;25.634;2023-04-20T00:48:45;98413.69;;;10.21;88.63
58668;BME280;59852;43.086;25.634;2023-04-20T00:51:11;98406.50;;;10.24;88.32
58668;BME280;59852;43.086;25.634;2023-04-20T00:53:37;98411.06;;;10.21;88.86
58668;BME280;59852;43.086;25.634;2023-04-20T00:56:03;98418.31;;;10.17;87.98
58668;BME280;59852;43.086;25.634;2023-04-20T00:58:28;98414.59;;;10.32;88.21
58668;BME280;59852;43.086;25.634;2023-04-20T01:00:54;98407.75;;;10.19;87.88
58668;BME280;59852;43.086;25.634;2023-04-20T01:03:20;98418.06;;;10.09;88.91
58668;BME280;59852;43.086;25.634;2023-04-20T01:05:46;98413.53;;;10.11;89.39
58668;BME280;59852;43.086;25.634;2023-04-20T01:08:11;98423.75;;;10.03;89.03
58668;BME280;59852;43.086;25.634;2023-04-20T01:10:37;98419.72;;;10.10;88.90
58668;BME280;59852;43.086;25.634;2023-04-20T01:13:02;98415.78;;;10.28;88.51
58668;BME280;59852;43.086;25.634;2023-04-20T01:15:27;98417.56;;;10.28;87.08
58668;BME280;59852;43.086;25.634;2023-04-20T01:17:53;98419.88;;;10.20;87.58
58668;BME280;59852;43.086;25.634;2023-04-20T01:20:18;98416.44;;;10.19;88.58
58668;BME280;59852;43.086;25.634;2023-04-20T01:22:48;98418.56;;;10.14;88.20
58668;BME280;59852;43.086;25.634;2023-04-20T01:25:14;98410.09;;;10.11;88.38
58668;BME280;59852;43.086;25.634;2023-04-20T01:27:40;98410.22;;;10.09;88.43
58668;BME280;59852;43.086;25.634;2023-04-20T01:30:05;98416.28;;;10.10;88.01
58668;BME280;59852;43.086;25.634;2023-04-20T01:32:31;98421.50;;;10.10;88.66
58668;BME280;59852;43.086;25.634;2023-04-20T01:34:56;98419.53;;;10.13;87.83
58668;BME280;59852;43.086;25.634;2023-04-20T01:37:22;98418.91;;;10.21;88.42
58668;BME280;59852;43.086;25.634;2023-04-20T01:39:47;98425.19;;;10.07;88.56
58668;BME280;59852;43.086;25.634;2023-04-20T01:42:12;98418.97;;;9.97;89.00
58668;BME280;59852;43.086;25.634;2023-04-20T01:44:38;98419.75;;;10.21;87.98
58668;BME280;59852;43.086;25.634;2023-04-20T01:47:03;98420.78;;;10.07;87.74
58668;BME280;59852;43.086;25.634;2023-04-20T01:49:29;98422.22;;;10.12;88.76
58668;BME280;59852;43.086;25.634;2023-04-20T01:51:54;98422.91;;;10.02;88.60
58668;BME280;59852;43.086;25.634;2023-04-20T01:54:20;98421.38;;;10.11;88.55
58668;BME280;59852;43.086;25.634;2023-04-20T01:56:45;98414.47;;;10.23;87.48
58668;BME280;59852;43.086;25.634;2023-04-20T01:59:10;98406.69;;;10.21;87.83
58668;BME280;59852;43.086;25.634;2023-04-20T02:01:36;98406.84;;;10.31;87.53
58668;BME280;59852;43.086;25.634;2023-04-20T02:04:01;98410.16;;;10.22;88.25
58668;BME280;59852;43.086;25.634;2023-04-20T02:06:26;98404.44;;;10.17;88.24
58668;BME280;59852;43.086;25.634;2023-04-20T02:08:52;98407.84;;;10.06;88.14
58668;BME280;59852;43.086;25.634;2023-04-20T02:11:17;98406.78;;;10.09;88.07
58668;BME280;59852;43.086;25.634;2023-04-20T02:13:43;98411.00;;;10.22;88.18
58668;BME280;59852;43.086;25.634;2023-04-20T02:16:08;98407.22;;;10.26;87.85
58668;BME280;59852;43.086;25.634;2023-04-20T02:18:33;98415.94;;;10.14;87.06
58668;BME280;59852;43.086;25.634;2023-04-20T02:20:59;98404.59;;;10.26;86.70
58668;BME280;59852;43.086;25.634;2023-04-20T02:23:25;98416.53;;;10.18;86.09
58668;BME280;59852;43.086;25.634;2023-04-20T02:25:50;98414.16;;;10.15;85.64
58668;BME280;59852;43.086;25.634;2023-04-20T02:28:16;98404.47;;;9.93;87.72
58668;BME280;59852;43.086;25.634;2023-04-20T02:30:41;98402.78;;;9.92;86.09
58668;BME280;59852;43.086;25.634;2023-04-20T02:33:07;98402.84;;;10.03;85.76
58668;BME280;59852;43.086;25.634;2023-04-20T02:35:33;98401.41;;;9.99;85.45
58668;BME280;59852;43.086;25.634;2023-04-20T02:37:58;98401.16;;;10.02;85.68
58668;BME280;59852;43.086;25.634;2023-04-20T02:40:23;98405.81;;;10.10;85.39
58668;BME280;59852;43.086;25.634;2023-04-20T02:42:49;98403.16;;;10.22;85.13
58668;BME280;59852;43.086;25.634;2023-04-20T02:45:14;98395.03;;;10.03;84.39
58668;BME280;59852;43.086;25.634;2023-04-20T02:47:39;98402.94;;;10.01;84.91
58668;BME280;59852;43.086;25.634;2023-04-20T02:50:05;98401.00;;;9.92;84.87
58668;BME280;59852;43.086;25.634;2023-04-20T02:52:31;98404.69;;;9.90;84.83
58668;BME280;59852;43.086;25.634;2023-04-20T02:54:56;98404.09;;;9.86;84.46
58668;BME280;59852;43.086;25.634;2023-04-20T02:57:22;98404.69;;;9.90;83.70
58668;BME280;59852;43.086;25.634;2023-04-20T02:59:49;98401.38;;;9.88;84.18
58668;BME280;59852;43.086;25.634;2023-04-20T03:02:14;98410.16;;;9.87;83.75
58668;BME280;59852;43.086;25.634;2023-04-20T03:04:40;98405.03;;;9.85;83.39
58668;BME280;59852;43.086;25.634;2023-04-20T03:07:05;98404.13;;;9.97;82.66
58668;BME280;59852;43.086;25.634;2023-04-20T03:09:30;98405.91;;;9.97;81.75
58668;BME280;59852;43.086;25.634;2023-04-20T03:11:56;98400.66;;;9.86;81.66
58668;BME280;59852;43.086;25.634;2023-04-20T03:14:21;98403.72;;;9.80;82.72
58668;BME280;59852;43.086;25.634;2023-04-20T03:16:47;98406.59;;;9.88;82.85
58668;BME280;59852;43.086;25.634;2023-04-20T03:19:12;98408.94;;;9.80;81.49
58668;BME280;59852;43.086;25.634;2023-04-20T03:21:38;98414.44;;;9.88;81.62
58668;BME280;59852;43.086;25.634;2023-04-20T03:24:03;98416.00;;;9.66;81.86
58668;BME280;59852;43.086;25.634;2023-04-20T03:26:29;98417.38;;;9.83;81.65
58668;BME280;59852;43.086;25.634;2023-04-20T03:28:54;98420.84;;;9.84;81.56
58668;BME280;59852;43.086;25.634;2023-04-20T03:31:19;98422.22;;;9.76;81.96
58668;BME280;59852;43.086;25.634;2023-04-20T03:33:45;98416.16;;;9.76;80.93
58668;BME280;59852;43.086;25.634;2023-04-20T03:36:10;98422.53;;;9.72;81.96
58668;BME280;59852;43.086;25.634;2023-04-20T03:38:36;98422.84;;;9.56;81.33
58668;BME280;59852;43.086;25.634;2023-04-20T03:41:01;98426.59;;;9.52;81.15
58668;BME280;59852;43.086;25.634;2023-04-20T03:43:26;98430.78;;;9.55;80.75
58668;BME280;59852;43.086;25.634;2023-04-20T03:45:52;98430.22;;;9.62;81.49
58668;BME280;59852;43.086;25.634;2023-04-20T03:48:17;98436.09;;;9.53;80.25
58668;BME280;59852;43.086;25.634;2023-04-20T03:50:42;98434.13;;;9.57;80.90
58668;BME280;59852;43.086;25.634;2023-04-20T03:53:08;98426.00;;;9.72;80.41
58668;BME280;59852;43.086;25.634;2023-04-20T03:55:33;98425.44;;;9.56;79.97
58668;BME280;59852;43.086;25.634;2023-04-20T03:57:58;98426.09;;;9.47;79.32
58668;BME280;59852;43.086;25.634;2023-04-20T04:00:24;98424.03;;;9.63;80.10
58668;BME280;59852;43.086;25.634;2023-04-20T04:02:49;98424.72;;;9.78;79.97
58668;BME280;59852;43.086;25.634;2023-04-20T04:05:15;98423.22;;;9.63;81.01
58668;BME280;59852;43.086;25.634;2023-04-20T04:07:40;98429.09;;;9.77;81.12
58668;BME280;59852;43.086;25.634;2023-04-20T04:10:06;98425.78;;;9.75;80.82
58668;BME280;59852;43.086;25.634;2023-04-20T04:12:31;98437.63;;;9.68;81.80
58668;BME280;59852;43.086;25.634;2023-04-20T04:14:56;98428.28;;;9.77;81.00
58668;BME280;59852;43.086;25.634;2023-04-20T04:17:22;98435.72;;;9.94;81.01
58668;BME280;59852;43.086;25.634;2023-04-20T04:19:47;98432.88;;;9.97;80.46
58668;BME280;59852;43.086;25.634;2023-04-20T04:22:12;98434.16;;;9.92;80.80
58668;BME280;59852;43.086;25.634;2023-04-20T04:24:38;98443.34;;;9.73;79.70
58668;BME280;59852;43.086;25.634;2023-04-20T04:27:05;98431.22;;;9.72;80.51
58668;BME280;59852;43.086;25.634;2023-04-20T04:29:31;98440.22;;;9.68;81.46
58668;BME280;59852;43.086;25.634;2023-04-20T04:31:59;98445.44;;;9.68;81.01
58668;BME280;59852;43.086;25.634;2023-04-20T04:34:25;98446.97;;;9.84;80.75
58668;BME280;59852;43.086;25.634;2023-04-20T04:36:53;98444.72;;;9.90;79.75
58668;BME280;59852;43.086;25.634;2023-04-20T04:39:19;98444.00;;;9.88;79.70
58668;BME280;59852;43.086;25.634;2023-04-20T04:41:44;98447.66;;;9.86;80.30
58668;BME280;59852;43.086;25.634;2023-04-20T04:44:09;98442.94;;;9.91;79.47
58668;BME280;59852;43.086;25.634;2023-04-20T04:46:36;98446.78;;;9.98;79.36
58668;BME280;59852;43.086;25.634;2023-04-20T04:49:01;98443.09;;;10.00;79.94
58668;BME280;59852;43.086;25.634;2023-04-20T04:51:26;98443.66;;;9.93;79.48
58668;BME280;59852;43.086;25.634;2023-04-20T04:53:52;98441.81;;;10.06;79.87
58668;BME280;59852;43.086;25.634;2023-04-20T04:56:17;98446.56;;;10.12;79.71
58668;BME280;59852;43.086;25.634;2023-04-20T04:58:44;98440.03;;;10.06;80.22
58668;BME280;59852;43.086;25.634;2023-04-20T05:01:10;98442.28;;;10.11;80.36
58668;BME280;59852;43.086;25.634;2023-04-20T05:03:35;98435.97;;;10.02;80.27
58668;BME280;59852;43.086;25.634;2023-04-20T05:06:00;98443.22;;;10.23;80.06
58668;BME280;59852;43.086;25.634;2023-04-20T05:08:26;98441.66;;;10.31;78.68
58668;BME280;59852;43.086;25.634;2023-04-20T05:10:51;98446.22;;;10.41;78.81
58668;BME280;59852;43.086;25.634;2023-04-20T05:13:16;98448.34;;;10.36;77.06
58668;BME280;59852;43.086;25.634;2023-04-20T05:15:42;98445.84;;;10.23;78.12
58668;BME280;59852;43.086;25.634;2023-04-20T05:18:07;98454.59;;;10.22;77.45
58668;BME280;59852;43.086;25.634;2023-04-20T05:20:32;98443.28;;;10.56;76.77
58668;BME280;59852;43.086;25.634;2023-04-20T05:22:58;98450.81;;;10.83;77.80
58668;BME280;59852;43.086;25.634;2023-04-20T05:25:23;98454.00;;;11.20;76.78
58668;BME280;59852;43.086;25.634;2023-04-20T05:27:49;98457.56;;;11.42;75.40
58668;BME280;59852;43.086;25.634;2023-04-20T05:30:15;98455.66;;;11.44;74.40
58668;BME280;59852;43.086;25.634;2023-04-20T05:32:40;98464.91;;;11.48;74.92
58668;BME280;59852;43.086;25.634;2023-04-20T05:35:06;98462.84;;;11.85;72.60
58668;BME280;59852;43.086;25.634;2023-04-20T05:37:31;98460.00;;;11.66;72.18
58668;BME280;59852;43.086;25.634;2023-04-20T05:39:57;98458.91;;;11.80;71.04
58668;BME280;59852;43.086;25.634;2023-04-20T05:42:22;98457.88;;;11.71;69.86
58668;BME280;59852;43.086;25.634;2023-04-20T05:44:47;98463.28;;;11.79;70.23
58668;BME280;59852;43.086;25.634;2023-04-20T05:47:13;98459.22;;;11.97;70.25
58668;BME280;59852;43.086;25.634;2023-04-20T05:49:38;98456.84;;;11.94;70.48
58668;BME280;59852;43.086;25.634;2023-04-20T05:52:04;98469.56;;;11.56;70.65
58668;BME280;59852;43.086;25.634;2023-04-20T05:54:29;98469.09;;;11.39;71.09
58668;BME280;59852;43.086;25.634;2023-04-20T05:56:55;98467.63;;;11.80;70.08
58668;BME280;59852;43.086;25.634;2023-04-20T05:59:22;98459.16;;;11.76;65.70
58668;BME280;59852;43.086;25.634;2023-04-20T06:01:48;98467.44;;;12.25;66.24
58668;BME280;59852;43.086;25.634;2023-04-20T06:04:13;98462.59;;;12.20;65.81
58668;BME280;59852;43.086;25.634;2023-04-20T06:06:39;98467.31;;;12.26;66.73
58668;BME280;59852;43.086;25.634;2023-04-20T06:09:04;98469.28;;;12.13;65.44
58668;BME280;59852;43.086;25.634;2023-04-20T06:11:29;98470.38;;;12.11;66.14
58668;BME280;59852;43.086;25.634;2023-04-20T06:13:55;98477.53;;;12.09;65.65
58668;BME280;59852;43.086;25.634;2023-04-20T06:16:20;98470.19;;;12.02;65.54
58668;BME280;59852;43.086;25.634;2023-04-20T06:18:46;98473.28;;;11.96;66.98
58668;BME280;59852;43.086;25.634;2023-04-20T06:21:11;98473.09;;;12.20;65.60
58668;BME280;59852;43.086;25.634;2023-04-20T06:23:36;98465.59;;;12.16;66.00
58668;BME280;59852;43.086;25.634;2023-04-20T06:26:03;98461.28;;;11.94;66.03
58668;BME280;59852;43.086;25.634;2023-04-20T06:28:28;98468.72;;;12.10;65.48
58668;BME280;59852;43.086;25.634;2023-04-20T06:30:54;98466.09;;;12.10;65.85
58668;BME280;59852;43.086;25.634;2023-04-20T06:33:19;98467.72;;;12.22;66.11
58668;BME280;59852;43.086;25.634;2023-04-20T06:35:45;98476.69;;;12.40;67.66
58668;BME280;59852;43.086;25.634;2023-04-20T06:38:10;98472.69;;;12.25;65.48
58668;BME280;59852;43.086;25.634;2023-04-20T06:40:35;98472.81;;;12.23;65.94
58668;BME280;59852;43.086;25.634;2023-04-20T06:43:01;98472.44;;;11.96;66.09
58668;BME280;59852;43.086;25.634;2023-04-20T06:45:26;98470.00;;;12.15;65.89
58668;BME280;59852;43.086;25.634;2023-04-20T06:47:51;98479.16;;;12.21;65.84
58668;BME280;59852;43.086;25.634;2023-04-20T06:50:17;98481.78;;;12.21;65.94
58668;BME280;59852;43.086;25.634;2023-04-20T06:52:42;98480.31;;;11.96;65.93
58668;BME280;59852;43.086;25.634;2023-04-20T06:55:08;98481.31;;;12.16;66.06
58668;BME280;59852;43.086;25.634;2023-04-20T06:57:33;98484.16;;;12.24;65.78
58668;BME280;59852;43.086;25.634;2023-04-20T06:59:59;98487.34;;;12.27;64.86
58668;BME280;59852;43.086;25.634;2023-04-20T07:02:25;98476.47;;;12.11;65.21
58668;BME280;59852;43.086;25.634;2023-04-20T07:04:50;98478.94;;;12.13;66.81
58668;BME280;59852;43.086;25.634;2023-04-20T07:07:16;98477.94;;;12.25;66.76
58668;BME280;59852;43.086;25.634;2023-04-20T07:09:41;98485.84;;;12.14;67.77
58668;BME280;59852;43.086;25.634;2023-04-20T07:12:06;98486.00;;;12.12;67.26
58668;BME280;59852;43.086;25.634;2023-04-20T07:14:32;98486.00;;;12.12;67.28
58668;BME280;59852;43.086;25.634;2023-04-20T07:16:57;98487.09;;;12.30;67.62
58668;BME280;59852;43.086;25.634;2023-04-20T07:19:22;98489.81;;;12.29;67.79
58668;BME280;59852;43.086;25.634;2023-04-20T07:21:48;98490.97;;;12.15;67.99
58668;BME280;59852;43.086;25.634;2023-04-20T07:24:13;98487.81;;;12.32;66.83
58668;BME280;59852;43.086;25.634;2023-04-20T07:26:38;98491.06;;;12.46;67.37
58668;BME280;59852;43.086;25.634;2023-04-20T07:29:04;98488.31;;;12.47;66.64
58668;BME280;59852;43.086;25.634;2023-04-20T07:31:29;98492.63;;;12.16;65.89
58668;BME280;59852;43.086;25.634;2023-04-20T07:33:54;98487.66;;;12.13;67.02
58668;BME280;59852;43.086;25.634;2023-04-20T07:36:20;98488.75;;;12.31;67.23
58668;BME280;59852;43.086;25.634;2023-04-20T07:38:46;98491.53;;;12.51;66.71
58668;BME280;59852;43.086;25.634;2023-04-20T07:41:12;98486.66;;;12.46;66.76
58668;BME280;59852;43.086;25.634;2023-04-20T07:43:37;98482.75;;;12.41;67.02
58668;BME280;59852;43.086;25.634;2023-04-20T07:46:03;98480.50;;;12.57;66.15
58668;BME280;59852;43.086;25.634;2023-04-20T07:48:28;98482.84;;;12.50;66.98
58668;BME280;59852;43.086;25.634;2023-04-20T07:50:54;98475.50;;;12.75;65.75
58668;BME280;59852;43.086;25.634;2023-04-20T07:53:19;98473.69;;;12.96;65.94
58668;BME280;59852;43.086;25.634;2023-04-20T07:55:44;98477.59;;;13.02;66.05
58668;BME280;59852;43.086;25.634;2023-04-20T07:58:10;98469.19;;;13.29;64.79
58668;BME280;59852;43.086;25.634;2023-04-20T08:00:36;98464.72;;;13.69;63.10
58668;BME280;59852;43.086;25.634;2023-04-20T08:03:01;98460.56;;;13.67;63.50
58668;BME280;59852;43.086;25.634;2023-04-20T08:05:26;98465.09;;;13.65;63.33
58668;BME280;59852;43.086;25.634;2023-04-20T08:07:52;98459.59;;;13.68;63.52
58668;BME280;59852;43.086;25.634;2023-04-20T08:10:17;98466.09;;;13.73;63.88
58668;BME280;59852;43.086;25.634;2023-04-20T08:12:42;98456.19;;;13.96;63.07
58668;BME280;59852;43.086;25.634;2023-04-20T08:15:08;98456.72;;;14.00;62.10
58668;BME280;59852;43.086;25.634;2023-04-20T08:17:34;98449.94;;;14.26;62.82
58668;BME280;59852;43.086;25.634;2023-04-20T08:19:59;98449.22;;;14.24;63.44
58668;BME280;59852;43.086;25.634;2023-04-20T08:22:25;98449.81;;;14.18;62.09
58668;BME280;59852;43.086;25.634;2023-04-20T08:24:54;98447.56;;;14.04;61.29
58668;BME280;59852;43.086;25.634;2023-04-20T08:27:19;98456.03;;;14.07;61.56
58668;BME280;59852;43.086;25.634;2023-04-20T08:29:45;98452.44;;;14.28;61.57
58668;BME280;59852;43.086;25.634;2023-04-20T08:32:10;98448.41;;;14.14;61.36
58668;BME280;59852;43.086;25.634;2023-04-20T08:34:37;98452.44;;;13.89;62.66
58668;BME280;59852;43.086;25.634;2023-04-20T08:37:02;98452.69;;;13.96;63.77
58668;BME280;59852;43.086;25.634;2023-04-20T08:39:27;98446.19;;;13.90;64.52
58668;BME280;59852;43.086;25.634;2023-04-20T08:41:54;98453.78;;;13.74;65.71
58668;BME280;59852;43.086;25.634;2023-04-20T08:44:21;98462.09;;;13.69;66.29
58668;BME280;59852;43.086;25.634;2023-04-20T08:46:47;98459.84;;;13.55;66.04
58668;BME280;59852;43.086;25.634;2023-04-20T08:49:16;98455.28;;;13.57;66.17
58668;BME280;59852;43.086;25.634;2023-04-20T08:51:45;98457.75;;;13.49;66.04
58668;BME280;59852;43.086;25.634;2023-04-20T08:54:11;98455.28;;;13.47;66.78
58668;BME280;59852;43.086;25.634;2023-04-20T08:56:37;98454.84;;;13.42;67.91
58668;BME280;59852;43.086;25.634;2023-04-20T08:59:03;98451.50;;;13.40;67.59
58668;BME280;59852;43.086;25.634;2023-04-20T09:01:29;98449.06;;;13.58;67.14
58668;BME280;59852;43.086;25.634;2023-04-20T09:03:55;98444.13;;;14.03;65.37
58668;BME280;59852;43.086;25.634;2023-04-20T09:06:20;98440.66;;;14.22;64.89
58668;BME280;59852;43.086;25.634;2023-04-20T09:08:46;98436.97;;;14.81;62.55
58668;BME280;59852;43.086;25.634;2023-04-20T09:11:22;98430.06;;;14.80;63.67
58668;BME280;59852;43.086;25.634;2023-04-20T09:16:23;98440.50;;;14.33;64.65
58668;BME280;59852;43.086;25.634;2023-04-20T09:18:51;98441.75;;;14.39;64.64
58668;BME280;59852;43.086;25.634;2023-04-20T09:21:17;98441.34;;;14.24;62.24
58668;BME280;59852;43.086;25.634;2023-04-20T09:23:43;98437.03;;;14.52;62.53
58668;BME280;59852;43.086;25.634;2023-04-20T09:26:19;98449.22;;;14.34;62.41
58668;BME280;59852;43.086;25.634;2023-04-20T09:28:45;98440.13;;;13.90;63.83
58668;BME280;59852;43.086;25.634;2023-04-20T09:31:17;98445.22;;;14.01;64.26
58668;BME280;59852;43.086;25.634;2023-04-20T09:33:42;98447.72;;;13.93;64.15
58668;BME280;59852;43.086;25.634;2023-04-20T09:36:08;98447.72;;;13.83;64.07
58668;BME280;59852;43.086;25.634;2023-04-20T09:38:35;98441.91;;;13.89;65.30
58668;BME280;59852;43.086;25.634;2023-04-20T09:41:00;98439.28;;;13.89;64.17
58668;BME280;59852;43.086;25.634;2023-04-20T09:43:26;98448.53;;;13.84;64.96
58668;BME280;59852;43.086;25.634;2023-04-20T09:45:52;98442.59;;;13.82;64.71
58668;BME280;59852;43.086;25.634;2023-04-20T09:48:18;98446.91;;;14.02;64.25
58668;BME280;59852;43.086;25.634;2023-04-20T09:50:45;98445.22;;;14.01;65.24
58668;BME280;59852;43.086;25.634;2023-04-20T09:53:12;98437.34;;;14.11;65.45
58668;BME280;59852;43.086;25.634;2023-04-20T09:55:37;98443.88;;;14.16;64.84
58668;BME280;59852;43.086;25.634;2023-04-20T09:58:03;98431.13;;;14.02;63.88
58668;BME280;59852;43.086;25.634;2023-04-20T10:00:28;98439.97;;;14.01;64.41
58668;BME280;59852;43.086;25.634;2023-04-20T10:02:54;98431.41;;;13.99;64.46
58668;BME280;59852;43.086;25.634;2023-04-20T10:05:31;98439.00;;;14.02;65.53
58668;BME280;59852;43.086;25.634;2023-04-20T10:07:59;98437.63;;;14.07;64.54
58668;BME280;59852;43.086;25.634;2023-04-20T10:10:28;98430.97;;;14.03;64.41
58668;BME280;59852;43.086;25.634;2023-04-20T10:12:55;98428.91;;;14.07;63.95
58668;BME280;59852;43.086;25.634;2023-04-20T10:15:21;98429.88;;;14.06;62.58
58668;BME280;59852;43.086;25.634;2023-04-20T10:17:46;98416.84;;;14.14;62.69
58668;BME280;59852;43.086;25.634;2023-04-20T10:22:46;98412.00;;;14.19;63.60
58668;BME280;59852;43.086;25.634;2023-04-20T10:25:16;98412.28;;;14.26;64.66
58668;BME280;59852;43.086;25.634;2023-04-20T10:27:55;98421.25;;;14.33;64.20
58668;BME280;59852;43.086;25.634;2023-04-20T10:30:21;98417.13;;;14.30;63.85
58668;BME280;59852;43.086;25.634;2023-04-20T10:32:47;98416.59;;;14.27;63.20
58668;BME280;59852;43.086;25.634;2023-04-20T10:35:12;98418.38;;;14.36;62.92
58668;BME280;59852;43.086;25.634;2023-04-20T10:37:47;98417.94;;;14.41;63.26
58668;BME280;59852;43.086;25.634;2023-04-20T10:40:12;98415.75;;;14.26;62.49
58668;BME280;59852;43.086;25.634;2023-04-20T10:42:41;98408.66;;;14.37;62.79
58668;BME280;59852;43.086;25.634;2023-04-20T10:45:07;98407.84;;;14.46;62.01
58668;BME280;59852;43.086;25.634;2023-04-20T10:47:33;98411.72;;;14.32;64.45
58668;BME280;59852;43.086;25.634;2023-04-20T10:50:08;98422.09;;;14.33;64.73
58668;BME280;59852;43.086;25.634;2023-04-20T10:52:34;98421.41;;;14.31;64.72
58668;BME280;59852;43.086;25.634;2023-04-20T10:55:03;98418.47;;;14.44;65.42
58668;BME280;59852;43.086;25.634;2023-04-20T10:57:29;98413.50;;;14.41;65.57
58668;BME280;59852;43.086;25.634;2023-04-20T10:59:54;98417.03;;;14.79;63.67
58668;BME280;59852;43.086;25.634;2023-04-20T11:02:20;98416.69;;;15.29;61.21
58668;BME280;59852;43.086;25.634;2023-04-20T11:04:45;98419.22;;;15.48;60.30
58668;BME280;59852;43.086;25.634;2023-04-20T11:07:11;98415.81;;;15.83;60.28
58668;BME280;59852;43.086;25.634;2023-04-20T11:09:39;98419.44;;;15.55;59.78
58668;BME280;59852;43.086;25.634;2023-04-20T11:12:07;98406.84;;;15.48;59.50
58668;BME280;59852;43.086;25.634;2023-04-20T11:14:34;98409.94;;;15.44;59.83
58668;BME280;59852;43.086;25.634;2023-04-20T11:17:02;98391.59;;;16.49;58.13
58668;BME280;59852;43.086;25.634;2023-04-20T11:19:30;98401.03;;;15.90;58.33
58668;BME280;59852;43.086;25.634;2023-04-20T11:21:56;98399.97;;;15.65;59.28
58668;BME280;59852;43.086;25.634;2023-04-20T11:24:22;98397.72;;;15.43;60.58
58668;BME280;59852;43.086;25.634;2023-04-20T11:26:48;98404.28;;;15.39;60.31
58668;BME280;59852;43.086;25.634;2023-04-20T11:29:36;98397.72;;;15.25;60.52
58668;BME280;59852;43.086;25.634;2023-04-20T11:32:06;98396.84;;;15.07;60.59
58668;BME280;59852;43.086;25.634;2023-04-20T11:34:32;98391.25;;;15.10;60.74
58668;BME280;59852;43.086;25.634;2023-04-20T11:37:07;98392.63;;;15.14;60.66
58668;BME280;59852;43.086;25.634;2023-04-20T11:39:34;98385.56;;;15.14;60.68
58668;BME280;59852;43.086;25.634;2023-04-20T11:41:59;98389.34;;;15.02;58.84
58668;BME280;59852;43.086;25.634;2023-04-20T11:44:25;98381.25;;;15.13;60.19
58668;BME280;59852;43.086;25.634;2023-04-20T11:46:51;98386.00;;;15.10;62.24
58668;BME280;59852;43.086;25.634;2023-04-20T11:49:21;98376.53;;;15.17;60.38
58668;BME280;59852;43.086;25.634;2023-04-20T11:51:47;98371.53;;;15.14;59.17
58668;BME280;59852;43.086;25.634;2023-04-20T11:54:12;98372.16;;;15.08;59.01
58668;BME280;59852;43.086;25.634;2023-04-20T11:56:38;98375.81;;;15.25;59.46
58668;BME280;59852;43.086;25.634;2023-04-20T11:59:05;98372.63;;;15.21;59.02
58668;BME280;59852;43.086;25.634;2023-04-20T12:01:31;98371.94;;;14.91;58.20
58668;BME280;59852;43.086;25.634;2023-04-20T12:03:57;98374.03;;;14.88;60.81
58668;BME280;59852;43.086;25.634;2023-04-20T12:06:25;98372.28;;;14.79;62.86
58668;BME280;59852;43.086;25.634;2023-04-20T12:08:51;98381.63;;;14.44;67.27
58668;BME280;59852;43.086;25.634;2023-04-20T12:11:16;98385.72;;;14.10;69.12
58668;BME280;59852;43.086;25.634;2023-04-20T12:13:42;98375.22;;;13.90;70.21
58668;BME280;59852;43.086;25.634;2023-04-20T12:16:07;98376.03;;;13.91;74.95
58668;BME280;59852;43.086;25.634;2023-04-20T12:18:33;98375.91;;;13.83;79.15
58668;BME280;59852;43.086;25.634;2023-04-20T12:20:58;98382.13;;;13.91;78.77
58668;BME280;59852;43.086;25.634;2023-04-20T12:23:24;98371.06;;;14.07;76.30
58668;BME280;59852;43.086;25.634;2023-04-20T12:25:50;98372.50;;;14.58;74.51
58668;BME280;59852;43.086;25.634;2023-04-20T12:28:15;98364.44;;;14.59;73.69
58668;BME280;59852;43.086;25.634;2023-04-20T12:30:40;98358.53;;;14.48;72.95
58668;BME280;59852;43.086;25.634;2023-04-20T12:33:06;98354.66;;;14.32;72.57
58668;BME280;59852;43.086;25.634;2023-04-20T12:35:31;98353.06;;;13.93;73.25
58668;BME280;59852;43.086;25.634;2023-04-20T12:37:56;98360.13;;;13.83;74.54
58668;BME280;59852;43.086;25.634;2023-04-20T12:40:22;98360.56;;;13.59;78.53
58668;BME280;59852;43.086;25.634;2023-04-20T12:42:47;98367.19;;;13.82;76.84
58668;BME280;59852;43.086;25.634;2023-04-20T12:45:13;98373.28;;;13.92;78.54
58668;BME280;59852;43.086;25.634;2023-04-20T12:47:38;98374.78;;;13.85;80.58
58668;BME280;59852;43.086;25.634;2023-04-20T12:50:03;98370.25;;;13.68;81.28